sensor_id;sensor_type;location;lat;lon;timestamp;P1;durP1;ratioP1;P2;durP2;ratioP2
47912;SDS011;33676;51.006;17.180;2023-01-23T00:01:40;43.10;;;29.00;;
47912;SDS011;33676;51.006;17.180;2023-01-23T00:04:09;47.00;;;29.90;;
47912;SDS011;33676;51.006;17.180;2023-01-23T00:06:41;50.00;;;28.80;;
47912;SDS011;33676;51.006;17.180;2023-01-23T00:09:10;50.70;;;29.90;;
47912;SDS011;33676;51.006;17.180;2023-01-23T00:11:38;52.10;;;31.40;;
47912;SDS011;33676;51.006;17.180;2023-01-23T00:14:09;49.40;;;32.70;;
47912;SDS011;33676;51.006;17.180;2023-01-23T00:16:37;47.70;;;31.00;;
47912;SDS011;33676;51.006;17.180;2023-01-23T00:19:06;52.50;;;30.70;;
47912;SDS011;33676;51.006;17.180;2023-01-23T00:21:34;46.00;;;29.50;;
47912;SDS011;33676;51.006;17.180;2023-01-23T00:24:03;50.30;;;27.90;;
47912;SDS011;33676;51.006;17.180;2023-01-23T00:26:31;45.60;;;27.70;;
47912;SDS011;33676;51.006;17.180;2023-01-23T00:29:01;44.70;;;28.80;;
47912;SDS011;33676;51.006;17.180;2023-01-23T00:31:34;51.50;;;28.80;;
47912;SDS011;33676;51.006;17.180;2023-01-23T00:34:07;49.80;;;29.80;;
47912;SDS011;33676;51.006;17.180;2023-01-23T00:36:40;52.90;;;32.10;;
47912;SDS011;33676;51.006;17.180;2023-01-23T00:39:17;53.90;;;30.50;;
47912;SDS011;33676;51.006;17.180;2023-01-23T00:41:47;49.10;;;29.90;;
47912;SDS011;33676;51.006;17.180;2023-01-23T00:44:16;41.80;;;26.30;;
47912;SDS011;33676;51.006;17.180;2023-01-23T00:46:45;50.90;;;29.10;;
47912;SDS011;33676;51.006;17.180;2023-01-23T00:49:14;48.30;;;26.70;;
47912;SDS011;33676;51.006;17.180;2023-01-23T00:51:45;46.60;;;30.30;;
47912;SDS011;33676;51.006;17.180;2023-01-23T00:54:13;46.40;;;29.40;;
47912;SDS011;33676;51.006;17.180;2023-01-23T00:56:42;53.70;;;29.60;;
47912;SDS011;33676;51.006;17.180;2023-01-23T00:59:10;56.60;;;33.40;;
47912;SDS011;33676;51.006;17.180;2023-01-23T01:01:39;47.60;;;29.70;;
47912;SDS011;33676;51.006;17.180;2023-01-23T01:04:08;45.60;;;28.70;;
47912;SDS011;33676;51.006;17.180;2023-01-23T01:06:36;46.40;;;29.80;;
47912;SDS011;33676;51.006;17.180;2023-01-23T01:09:04;49.10;;;29.90;;
47912;SDS011;33676;51.006;17.180;2023-01-23T01:11:33;59.80;;;32.40;;
47912;SDS011;33676;51.006;17.180;2023-01-23T01:14:02;62.90;;;33.70;;
47912;SDS011;33676;51.006;17.180;2023-01-23T01:16:31;58.80;;;32.40;;
47912;SDS011;33676;51.006;17.180;2023-01-23T01:19:00;53.20;;;32.00;;
47912;SDS011;33676;51.006;17.180;2023-01-23T01:21:28;58.90;;;31.70;;
47912;SDS011;33676;51.006;17.180;2023-01-23T01:23:57;55.30;;;31.10;;
47912;SDS011;33676;51.006;17.180;2023-01-23T01:26:25;57.90;;;30.30;;
47912;SDS011;33676;51.006;17.180;2023-01-23T01:28:54;55.10;;;30.40;;
47912;SDS011;33676;51.006;17.180;2023-01-23T01:31:22;56.50;;;29.10;;
47912;SDS011;33676;51.006;17.180;2023-01-23T01:33:51;56.40;;;32.30;;
47912;SDS011;33676;51.006;17.180;2023-01-23T01:36:21;60.60;;;32.10;;
47912;SDS011;33676;51.006;17.180;2023-01-23T01:38:51;54.80;;;32.10;;
47912;SDS011;33676;51.006;17.180;2023-01-23T01:41:19;51.90;;;31.10;;
47912;SDS011;33676;51.006;17.180;2023-01-23T01:43:48;52.40;;;32.50;;
47912;SDS011;33676;51.006;17.180;2023-01-23T01:46:19;58.10;;;31.70;;
47912;SDS011;33676;51.006;17.180;2023-01-23T01:49:12;51.80;;;30.00;;
47912;SDS011;33676;51.006;17.180;2023-01-23T01:52:08;49.10;;;30.40;;
47912;SDS011;33676;51.006;17.180;2023-01-23T01:54:46;56.60;;;31.60;;
47912;SDS011;33676;51.006;17.180;2023-01-23T01:59:56;57.80;;;31.90;;
47912;SDS011;33676;51.006;17.180;2023-01-23T02:02:36;55.50;;;29.90;;
47912;SDS011;33676;51.006;17.180;2023-01-23T02:05:10;53.30;;;32.30;;
47912;SDS011;33676;51.006;17.180;2023-01-23T02:08:18;55.70;;;30.40;;
47912;SDS011;33676;51.006;17.180;2023-01-23T02:10:52;51.40;;;29.90;;
47912;SDS011;33676;51.006;17.180;2023-01-23T02:13:29;49.60;;;28.50;;
47912;SDS011;33676;51.006;17.180;2023-01-23T02:16:06;57.70;;;30.60;;
47912;SDS011;33676;51.006;17.180;2023-01-23T02:18:40;51.00;;;29.40;;
47912;SDS011;33676;51.006;17.180;2023-01-23T02:21:12;56.30;;;29.30;;
47912;SDS011;33676;51.006;17.180;2023-01-23T02:24:16;56.00;;;29.30;;
47912;SDS011;33676;51.006;17.180;2023-01-23T02:26:53;55.80;;;32.40;;
47912;SDS011;33676;51.006;17.180;2023-01-23T02:29:21;53.00;;;30.30;;
47912;SDS011;33676;51.006;17.180;2023-01-23T02:31:50;48.70;;;29.40;;
47912;SDS011;33676;51.006;17.180;2023-01-23T02:34:20;51.60;;;29.00;;
47912;SDS011;33676;51.006;17.180;2023-01-23T02:36:49;57.30;;;31.00;;
47912;SDS011;33676;51.006;17.180;2023-01-23T02:39:19;52.60;;;28.70;;
47912;SDS011;33676;51.006;17.180;2023-01-23T02:41:49;53.80;;;31.10;;
47912;SDS011;33676;51.006;17.180;2023-01-23T02:44:24;50.20;;;27.80;;
47912;SDS011;33676;51.006;17.180;2023-01-23T02:46:56;48.40;;;29.20;;
47912;SDS011;33676;51.006;17.180;2023-01-23T02:49:29;58.80;;;29.80;;
47912;SDS011;33676;51.006;17.180;2023-01-23T02:51:58;53.30;;;28.40;;
47912;SDS011;33676;51.006;17.180;2023-01-23T02:54:27;62.00;;;34.30;;
47912;SDS011;33676;51.006;17.180;2023-01-23T02:56:55;54.60;;;29.10;;
47912;SDS011;33676;51.006;17.180;2023-01-23T02:59:24;48.50;;;30.20;;
47912;SDS011;33676;51.006;17.180;2023-01-23T03:02:11;59.90;;;34.00;;
47912;SDS011;33676;51.006;17.180;2023-01-23T03:04:40;50.70;;;31.30;;
47912;SDS011;33676;51.006;17.180;2023-01-23T03:07:08;57.00;;;31.50;;
47912;SDS011;33676;51.006;17.180;2023-01-23T03:09:37;46.80;;;28.30;;
47912;SDS011;33676;51.006;17.180;2023-01-23T03:12:06;57.60;;;33.20;;
47912;SDS011;33676;51.006;17.180;2023-01-23T03:14:36;56.90;;;31.50;;
47912;SDS011;33676;51.006;17.180;2023-01-23T03:17:04;52.90;;;30.10;;
47912;SDS011;33676;51.006;17.180;2023-01-23T03:19:32;58.80;;;32.10;;
47912;SDS011;33676;51.006;17.180;2023-01-23T03:22:01;60.30;;;33.90;;
47912;SDS011;33676;51.006;17.180;2023-01-23T03:24:29;64.90;;;34.40;;
47912;SDS011;33676;51.006;17.180;2023-01-23T03:26:57;57.90;;;33.70;;
47912;SDS011;33676;51.006;17.180;2023-01-23T03:29:26;53.60;;;31.10;;
47912;SDS011;33676;51.006;17.180;2023-01-23T03:32:13;56.20;;;32.30;;
47912;SDS011;33676;51.006;17.180;2023-01-23T03:34:42;55.20;;;31.70;;
47912;SDS011;33676;51.006;17.180;2023-01-23T03:37:11;57.30;;;29.20;;
47912;SDS011;33676;51.006;17.180;2023-01-23T03:39:42;52.00;;;31.40;;
47912;SDS011;33676;51.006;17.180;2023-01-23T03:42:29;55.70;;;29.30;;
47912;SDS011;33676;51.006;17.180;2023-01-23T03:45:01;52.60;;;29.80;;
47912;SDS011;33676;51.006;17.180;2023-01-23T03:47:30;52.90;;;32.10;;
47912;SDS011;33676;51.006;17.180;2023-01-23T03:49:58;52.00;;;28.80;;
47912;SDS011;33676;51.006;17.180;2023-01-23T03:52:26;50.30;;;29.60;;
47912;SDS011;33676;51.006;17.180;2023-01-23T03:54:55;47.80;;;30.40;;
47912;SDS011;33676;51.006;17.180;2023-01-23T03:57:23;58.10;;;29.60;;
47912;SDS011;33676;51.006;17.180;2023-01-23T03:59:52;54.50;;;31.40;;
47912;SDS011;33676;51.006;17.180;2023-01-23T04:02:20;52.40;;;29.90;;
47912;SDS011;33676;51.006;17.180;2023-01-23T04:04:48;58.00;;;32.40;;
47912;SDS011;33676;51.006;17.180;2023-01-23T04:07:17;55.70;;;33.00;;
47912;SDS011;33676;51.006;17.180;2023-01-23T04:09:45;54.30;;;31.80;;
47912;SDS011;33676;51.006;17.180;2023-01-23T04:12:13;49.70;;;28.00;;
47912;SDS011;33676;51.006;17.180;2023-01-23T04:14:42;54.70;;;32.40;;
47912;SDS011;33676;51.006;17.180;2023-01-23T04:17:10;58.00;;;33.40;;
47912;SDS011;33676;51.006;17.180;2023-01-23T04:19:39;55.00;;;32.00;;
47912;SDS011;33676;51.006;17.180;2023-01-23T04:22:07;53.10;;;30.10;;
47912;SDS011;33676;51.006;17.180;2023-01-23T04:24:37;52.60;;;30.50;;
47912;SDS011;33676;51.006;17.180;2023-01-23T04:27:05;62.40;;;33.50;;
47912;SDS011;33676;51.006;17.180;2023-01-23T04:29:33;52.10;;;29.60;;
47912;SDS011;33676;51.006;17.180;2023-01-23T04:32:02;58.30;;;32.20;;
47912;SDS011;33676;51.006;17.180;2023-01-23T04:34:31;57.10;;;30.00;;
47912;SDS011;33676;51.006;17.180;2023-01-23T04:37:00;53.50;;;33.80;;
47912;SDS011;33676;51.006;17.180;2023-01-23T04:39:29;51.30;;;28.60;;
47912;SDS011;33676;51.006;17.180;2023-01-23T04:41:59;51.50;;;29.90;;
47912;SDS011;33676;51.006;17.180;2023-01-23T04:44:27;57.10;;;33.70;;
47912;SDS011;33676;51.006;17.180;2023-01-23T04:46:55;52.70;;;30.60;;
47912;SDS011;33676;51.006;17.180;2023-01-23T04:49:24;54.00;;;30.60;;
47912;SDS011;33676;51.006;17.180;2023-01-23T04:51:53;55.00;;;33.20;;
47912;SDS011;33676;51.006;17.180;2023-01-23T04:54:22;51.10;;;29.20;;
47912;SDS011;33676;51.006;17.180;2023-01-23T04:56:50;47.40;;;28.60;;
47912;SDS011;33676;51.006;17.180;2023-01-23T04:59:19;56.10;;;30.80;;
47912;SDS011;33676;51.006;17.180;2023-01-23T05:01:48;48.90;;;28.30;;
47912;SDS011;33676;51.006;17.180;2023-01-23T05:04:16;51.00;;;29.90;;
47912;SDS011;33676;51.006;17.180;2023-01-23T05:06:45;54.90;;;30.80;;
47912;SDS011;33676;51.006;17.180;2023-01-23T05:09:13;55.70;;;31.60;;
47912;SDS011;33676;51.006;17.180;2023-01-23T05:11:42;56.70;;;33.00;;
47912;SDS011;33676;51.006;17.180;2023-01-23T05:14:10;65.60;;;35.60;;
47912;SDS011;33676;51.006;17.180;2023-01-23T05:16:39;58.60;;;36.30;;
47912;SDS011;33676;51.006;17.180;2023-01-23T05:19:07;57.30;;;31.70;;
47912;SDS011;33676;51.006;17.180;2023-01-23T05:21:35;58.60;;;32.00;;
47912;SDS011;33676;51.006;17.180;2023-01-23T05:24:04;51.90;;;30.70;;
47912;SDS011;33676;51.006;17.180;2023-01-23T05:26:32;52.90;;;32.10;;
47912;SDS011;33676;51.006;17.180;2023-01-23T05:29:02;56.20;;;30.90;;
47912;SDS011;33676;51.006;17.180;2023-01-23T05:31:30;59.60;;;33.90;;
47912;SDS011;33676;51.006;17.180;2023-01-23T05:33:59;50.60;;;30.30;;
47912;SDS011;33676;51.006;17.180;2023-01-23T05:36:27;59.30;;;32.00;;
47912;SDS011;33676;51.006;17.180;2023-01-23T05:38:56;54.60;;;30.80;;
47912;SDS011;33676;51.006;17.180;2023-01-23T05:41:24;50.70;;;30.00;;
47912;SDS011;33676;51.006;17.180;2023-01-23T05:43:53;60.10;;;34.50;;
47912;SDS011;33676;51.006;17.180;2023-01-23T05:46:21;64.70;;;36.30;;
47912;SDS011;33676;51.006;17.180;2023-01-23T05:48:50;64.40;;;36.50;;
47912;SDS011;33676;51.006;17.180;2023-01-23T05:51:19;58.00;;;34.30;;
47912;SDS011;33676;51.006;17.180;2023-01-23T05:53:48;58.10;;;36.10;;
47912;SDS011;33676;51.006;17.180;2023-01-23T05:56:16;60.40;;;34.20;;
47912;SDS011;33676;51.006;17.180;2023-01-23T05:58:45;54.00;;;30.50;;
47912;SDS011;33676;51.006;17.180;2023-01-23T06:01:14;52.10;;;30.30;;
47912;SDS011;33676;51.006;17.180;2023-01-23T06:03:42;51.00;;;30.90;;
47912;SDS011;33676;51.006;17.180;2023-01-23T06:06:11;55.80;;;29.20;;
47912;SDS011;33676;51.006;17.180;2023-01-23T06:08:39;60.10;;;32.10;;
47912;SDS011;33676;51.006;17.180;2023-01-23T06:11:08;46.80;;;30.40;;
47912;SDS011;33676;51.006;17.180;2023-01-23T06:13:37;57.10;;;30.40;;
47912;SDS011;33676;51.006;17.180;2023-01-23T06:16:05;51.80;;;27.60;;
47912;SDS011;33676;51.006;17.180;2023-01-23T06:18:37;58.00;;;32.80;;
47912;SDS011;33676;51.006;17.180;2023-01-23T06:21:05;55.20;;;31.50;;
47912;SDS011;33676;51.006;17.180;2023-01-23T06:23:34;54.10;;;30.10;;
47912;SDS011;33676;51.006;17.180;2023-01-23T06:26:02;55.00;;;32.00;;
47912;SDS011;33676;51.006;17.180;2023-01-23T06:28:31;62.40;;;33.20;;
47912;SDS011;33676;51.006;17.180;2023-01-23T06:31:00;59.60;;;33.00;;
47912;SDS011;33676;51.006;17.180;2023-01-23T06:33:31;50.80;;;32.80;;
47912;SDS011;33676;51.006;17.180;2023-01-23T06:36:00;50.20;;;28.80;;
47912;SDS011;33676;51.006;17.180;2023-01-23T06:38:30;57.50;;;37.60;;
47912;SDS011;33676;51.006;17.180;2023-01-23T06:40:59;58.60;;;35.60;;
47912;SDS011;33676;51.006;17.180;2023-01-23T06:43:28;56.20;;;33.30;;
47912;SDS011;33676;51.006;17.180;2023-01-23T06:45:56;54.50;;;29.90;;
47912;SDS011;33676;51.006;17.180;2023-01-23T06:48:25;53.80;;;33.20;;
47912;SDS011;33676;51.006;17.180;2023-01-23T06:50:53;51.80;;;29.50;;
47912;SDS011;33676;51.006;17.180;2023-01-23T06:53:24;46.20;;;30.30;;
47912;SDS011;33676;51.006;17.180;2023-01-23T06:56:01;51.30;;;28.30;;
47912;SDS011;33676;51.006;17.180;2023-01-23T06:58:34;52.20;;;29.00;;
47912;SDS011;33676;51.006;17.180;2023-01-23T07:01:12;45.50;;;28.40;;
47912;SDS011;33676;51.006;17.180;2023-01-23T07:03:44;55.00;;;29.30;;
47912;SDS011;33676;51.006;17.180;2023-01-23T07:06:15;57.30;;;30.40;;
47912;SDS011;33676;51.006;17.180;2023-01-23T07:08:46;52.10;;;29.40;;
47912;SDS011;33676;51.006;17.180;2023-01-23T07:11:18;56.60;;;32.30;;
47912;SDS011;33676;51.006;17.180;2023-01-23T07:13:48;45.90;;;30.60;;
47912;SDS011;33676;51.006;17.180;2023-01-23T07:16:19;51.40;;;29.30;;
47912;SDS011;33676;51.006;17.180;2023-01-23T07:18:49;46.30;;;28.00;;
47912;SDS011;33676;51.006;17.180;2023-01-23T07:21:19;55.50;;;32.00;;
47912;SDS011;33676;51.006;17.180;2023-01-23T07:23:50;55.20;;;31.50;;
47912;SDS011;33676;51.006;17.180;2023-01-23T07:26:20;51.80;;;32.60;;
47912;SDS011;33676;51.006;17.180;2023-01-23T07:28:50;53.60;;;30.70;;
47912;SDS011;33676;51.006;17.180;2023-01-23T07:31:21;51.30;;;31.80;;
47912;SDS011;33676;51.006;17.180;2023-01-23T07:33:52;50.70;;;31.70;;
47912;SDS011;33676;51.006;17.180;2023-01-23T07:36:21;60.50;;;34.30;;
47912;SDS011;33676;51.006;17.180;2023-01-23T07:38:50;53.10;;;32.70;;
47912;SDS011;33676;51.006;17.180;2023-01-23T07:41:19;59.20;;;32.30;;
47912;SDS011;33676;51.006;17.180;2023-01-23T07:43:48;60.70;;;33.60;;
47912;SDS011;33676;51.006;17.180;2023-01-23T07:46:16;49.00;;;31.80;;
47912;SDS011;33676;51.006;17.180;2023-01-23T07:48:46;53.70;;;31.50;;
47912;SDS011;33676;51.006;17.180;2023-01-23T07:51:15;55.20;;;31.60;;
47912;SDS011;33676;51.006;17.180;2023-01-23T07:53:45;48.70;;;31.70;;
47912;SDS011;33676;51.006;17.180;2023-01-23T07:56:14;58.90;;;31.40;;
47912;SDS011;33676;51.006;17.180;2023-01-23T07:58:42;52.30;;;31.40;;
47912;SDS011;33676;51.006;17.180;2023-01-23T08:01:11;54.50;;;32.50;;
47912;SDS011;33676;51.006;17.180;2023-01-23T08:03:40;62.90;;;33.10;;
47912;SDS011;33676;51.006;17.180;2023-01-23T08:06:10;52.90;;;28.80;;
47912;SDS011;33676;51.006;17.180;2023-01-23T08:08:40;47.10;;;30.80;;
47912;SDS011;33676;51.006;17.180;2023-01-23T08:11:09;53.90;;;30.30;;
47912;SDS011;33676;51.006;17.180;2023-01-23T08:13:40;47.20;;;27.60;;
47912;SDS011;33676;51.006;17.180;2023-01-23T08:16:10;57.10;;;31.30;;
47912;SDS011;33676;51.006;17.180;2023-01-23T08:18:41;50.70;;;30.00;;
47912;SDS011;33676;51.006;17.180;2023-01-23T08:21:10;55.70;;;33.20;;
47912;SDS011;33676;51.006;17.180;2023-01-23T08:23:40;47.70;;;28.20;;
47912;SDS011;33676;51.006;17.180;2023-01-23T08:26:15;48.20;;;31.10;;
47912;SDS011;33676;51.006;17.180;2023-01-23T08:28:46;54.20;;;33.90;;
47912;SDS011;33676;51.006;17.180;2023-01-23T08:31:18;49.50;;;29.90;;
47912;SDS011;33676;51.006;17.180;2023-01-23T08:33:51;54.90;;;33.80;;
47912;SDS011;33676;51.006;17.180;2023-01-23T08:36:19;52.40;;;32.80;;
47912;SDS011;33676;51.006;17.180;2023-01-23T08:38:48;53.00;;;32.50;;
47912;SDS011;33676;51.006;17.180;2023-01-23T08:41:17;43.30;;;30.70;;
47912;SDS011;33676;51.006;17.180;2023-01-23T08:43:48;50.40;;;29.90;;
47912;SDS011;33676;51.006;17.180;2023-01-23T08:46:18;49.90;;;30.80;;
47912;SDS011;33676;51.006;17.180;2023-01-23T08:48:48;57.80;;;33.40;;
47912;SDS011;33676;51.006;17.180;2023-01-23T08:51:19;50.70;;;34.80;;
47912;SDS011;33676;51.006;17.180;2023-01-23T08:53:50;49.10;;;32.10;;
47912;SDS011;33676;51.006;17.180;2023-01-23T08:56:22;54.30;;;33.50;;
47912;SDS011;33676;51.006;17.180;2023-01-23T08:58:51;48.60;;;30.20;;
47912;SDS011;33676;51.006;17.180;2023-01-23T09:01:22;47.60;;;29.10;;
47912;SDS011;33676;51.006;17.180;2023-01-23T09:03:52;49.10;;;31.80;;
47912;SDS011;33676;51.006;17.180;2023-01-23T09:06:21;47.70;;;27.90;;
47912;SDS011;33676;51.006;17.180;2023-01-23T09:08:50;42.10;;;29.40;;
47912;SDS011;33676;51.006;17.180;2023-01-23T09:11:19;51.00;;;31.30;;
47912;SDS011;33676;51.006;17.180;2023-01-23T09:13:48;52.30;;;33.70;;
47912;SDS011;33676;51.006;17.180;2023-01-23T09:16:21;42.50;;;28.20;;
47912;SDS011;33676;51.006;17.180;2023-01-23T09:18:50;44.90;;;30.40;;
47912;SDS011;33676;51.006;17.180;2023-01-23T09:21:21;41.50;;;26.20;;
47912;SDS011;33676;51.006;17.180;2023-01-23T09:23:50;43.90;;;26.60;;
47912;SDS011;33676;51.006;17.180;2023-01-23T09:26:19;45.20;;;27.90;;
47912;SDS011;33676;51.006;17.180;2023-01-23T09:28:50;41.10;;;27.80;;
47912;SDS011;33676;51.006;17.180;2023-01-23T09:31:18;43.00;;;30.50;;
47912;SDS011;33676;51.006;17.180;2023-01-23T09:33:47;39.70;;;26.70;;
47912;SDS011;33676;51.006;17.180;2023-01-23T09:36:16;39.70;;;28.40;;
47912;SDS011;33676;51.006;17.180;2023-01-23T09:38:47;41.80;;;26.90;;
47912;SDS011;33676;51.006;17.180;2023-01-23T09:41:22;40.60;;;27.30;;
47912;SDS011;33676;51.006;17.180;2023-01-23T09:44:24;43.20;;;28.20;;
47912;SDS011;33676;51.006;17.180;2023-01-23T09:47:22;42.40;;;26.10;;
47912;SDS011;33676;51.006;17.180;2023-01-23T09:50:06;34.80;;;23.70;;
47912;SDS011;33676;51.006;17.180;2023-01-23T09:52:44;43.20;;;27.80;;
47912;SDS011;33676;51.006;17.180;2023-01-23T09:55:34;38.00;;;25.70;;
47912;SDS011;33676;51.006;17.180;2023-01-23T09:58:38;38.30;;;25.10;;
47912;SDS011;33676;51.006;17.180;2023-01-23T10:01:13;38.90;;;25.20;;
47912;SDS011;33676;51.006;17.180;2023-01-23T10:03:41;37.70;;;25.30;;
47912;SDS011;33676;51.006;17.180;2023-01-23T10:06:22;39.20;;;27.60;;
47912;SDS011;33676;51.006;17.180;2023-01-23T10:12:40;36.00;;;26.30;;
47912;SDS011;33676;51.006;17.180;2023-01-23T10:27:19;31.70;;;22.60;;
47912;SDS011;33676;51.006;17.180;2023-01-23T10:29:58;37.80;;;25.00;;
47912;SDS011;33676;51.006;17.180;2023-01-23T10:32:41;33.80;;;22.80;;
47912;SDS011;33676;51.006;17.180;2023-01-23T10:35:24;34.30;;;24.10;;
47912;SDS011;33676;51.006;17.180;2023-01-23T10:41:30;36.90;;;24.90;;
47912;SDS011;33676;51.006;17.180;2023-01-23T10:44:00;37.90;;;24.90;;
47912;SDS011;33676;51.006;17.180;2023-01-23T10:46:34;32.70;;;24.70;;
47912;SDS011;33676;51.006;17.180;2023-01-23T10:52:35;32.50;;;23.10;;
47912;SDS011;33676;51.006;17.180;2023-01-23T10:55:38;37.20;;;23.20;;
47912;SDS011;33676;51.006;17.180;2023-01-23T10:58:35;37.70;;;24.00;;
47912;SDS011;33676;51.006;17.180;2023-01-23T11:01:22;34.10;;;23.70;;
47912;SDS011;33676;51.006;17.180;2023-01-23T11:03:54;38.60;;;25.20;;
47912;SDS011;33676;51.006;17.180;2023-01-23T11:06:23;42.50;;;26.80;;
47912;SDS011;33676;51.006;17.180;2023-01-23T11:08:58;37.60;;;26.10;;
47912;SDS011;33676;51.006;17.180;2023-01-23T11:12:01;35.90;;;23.80;;
47912;SDS011;33676;51.006;17.180;2023-01-23T11:14:32;34.70;;;23.50;;
47912;SDS011;33676;51.006;17.180;2023-01-23T11:17:23;41.30;;;30.20;;
47912;SDS011;33676;51.006;17.180;2023-01-23T11:19:58;52.10;;;35.70;;
47912;SDS011;33676;51.006;17.180;2023-01-23T11:22:39;50.20;;;33.20;;
47912;SDS011;33676;51.006;17.180;2023-01-23T11:25:39;41.70;;;27.40;;
47912;SDS011;33676;51.006;17.180;2023-01-23T11:28:27;42.20;;;26.50;;
47912;SDS011;33676;51.006;17.180;2023-01-23T11:31:17;42.50;;;25.80;;
47912;SDS011;33676;51.006;17.180;2023-01-23T11:33:58;38.60;;;23.30;;
47912;SDS011;33676;51.006;17.180;2023-01-23T11:42:10;37.30;;;27.60;;
47912;SDS011;33676;51.006;17.180;2023-01-23T11:44:40;33.80;;;23.10;;
47912;SDS011;33676;51.006;17.180;2023-01-23T11:48:10;53.70;;;40.20;;
47912;SDS011;33676;51.006;17.180;2023-01-23T11:51:10;41.10;;;27.40;;
47912;SDS011;33676;51.006;17.180;2023-01-23T11:53:47;33.80;;;23.30;;
47912;SDS011;33676;51.006;17.180;2023-01-23T11:56:49;43.20;;;28.40;;
47912;SDS011;33676;51.006;17.180;2023-01-23T12:02:46;47.40;;;29.30;;
47912;SDS011;33676;51.006;17.180;2023-01-23T12:05:40;69.10;;;50.70;;
47912;SDS011;33676;51.006;17.180;2023-01-23T12:09:12;42.00;;;26.10;;
47912;SDS011;33676;51.006;17.180;2023-01-23T12:23:48;51.30;;;36.70;;
47912;SDS011;33676;51.006;17.180;2023-01-23T12:26:56;50.00;;;32.60;;
47912;SDS011;33676;51.006;17.180;2023-01-23T12:29:44;41.70;;;29.50;;
47912;SDS011;33676;51.006;17.180;2023-01-23T12:35:46;44.10;;;30.40;;
47912;SDS011;33676;51.006;17.180;2023-01-23T12:38:31;48.50;;;34.00;;
47912;SDS011;33676;51.006;17.180;2023-01-23T12:44:19;39.30;;;27.40;;
47912;SDS011;33676;51.006;17.180;2023-01-23T12:47:04;44.40;;;32.90;;
47912;SDS011;33676;51.006;17.180;2023-01-23T12:49:58;43.90;;;29.80;;
47912;SDS011;33676;51.006;17.180;2023-01-23T12:52:37;37.50;;;26.80;;
47912;SDS011;33676;51.006;17.180;2023-01-23T12:55:22;40.40;;;28.50;;
47912;SDS011;33676;51.006;17.180;2023-01-23T12:57:55;42.80;;;28.00;;
47912;SDS011;33676;51.006;17.180;2023-01-23T13:11:23;33.90;;;25.50;;
47912;SDS011;33676;51.006;17.180;2023-01-23T13:14:23;40.50;;;28.80;;
47912;SDS011;33676;51.006;17.180;2023-01-23T13:17:48;42.70;;;29.90;;
47912;SDS011;33676;51.006;17.180;2023-01-23T13:23:44;41.50;;;29.90;;
47912;SDS011;33676;51.006;17.180;2023-01-23T13:28:50;44.00;;;28.50;;
47912;SDS011;33676;51.006;17.180;2023-01-23T13:31:32;48.20;;;31.50;;
47912;SDS011;33676;51.006;17.180;2023-01-23T13:37:31;45.30;;;32.30;;
47912;SDS011;33676;51.006;17.180;2023-01-23T13:40:22;43.90;;;29.40;;
47912;SDS011;33676;51.006;17.180;2023-01-23T13:42:51;44.90;;;29.70;;
47912;SDS011;33676;51.006;17.180;2023-01-23T13:45:25;44.00;;;30.60;;
47912;SDS011;33676;51.006;17.180;2023-01-23T13:51:42;42.10;;;28.60;;
47912;SDS011;33676;51.006;17.180;2023-01-23T13:54:29;45.60;;;30.00;;
47912;SDS011;33676;51.006;17.180;2023-01-23T13:57:31;45.80;;;28.40;;
47912;SDS011;33676;51.006;17.180;2023-01-23T14:00:19;41.70;;;28.30;;
47912;SDS011;33676;51.006;17.180;2023-01-23T14:03:30;42.90;;;29.50;;
47912;SDS011;33676;51.006;17.180;2023-01-23T14:06:36;46.90;;;28.50;;
47912;SDS011;33676;51.006;17.180;2023-01-23T14:09:30;41.70;;;29.20;;
47912;SDS011;33676;51.006;17.180;2023-01-23T14:12:12;47.20;;;28.40;;
47912;SDS011;33676;51.006;17.180;2023-01-23T14:14:54;42.50;;;28.90;;
47912;SDS011;33676;51.006;17.180;2023-01-23T14:17:41;40.40;;;27.90;;
47912;SDS011;33676;51.006;17.180;2023-01-23T14:20:22;48.50;;;30.00;;
47912;SDS011;33676;51.006;17.180;2023-01-23T14:22:48;46.10;;;32.20;;
47912;SDS011;33676;51.006;17.180;2023-01-23T14:25:29;39.80;;;27.50;;
47912;SDS011;33676;51.006;17.180;2023-01-23T14:28:02;51.90;;;32.10;;
47912;SDS011;33676;51.006;17.180;2023-01-23T14:33:09;45.40;;;30.30;;
47912;SDS011;33676;51.006;17.180;2023-01-23T14:35:38;42.60;;;30.90;;
47912;SDS011;33676;51.006;17.180;2023-01-23T14:38:21;51.70;;;30.90;;
47912;SDS011;33676;51.006;17.180;2023-01-23T14:40:56;45.40;;;29.60;;
47912;SDS011;33676;51.006;17.180;2023-01-23T14:43:26;48.90;;;34.00;;
47912;SDS011;33676;51.006;17.180;2023-01-23T14:46:06;46.00;;;32.80;;
47912;SDS011;33676;51.006;17.180;2023-01-23T14:50:20;53.00;;;36.20;;
47912;SDS011;33676;51.006;17.180;2023-01-23T14:53:04;51.10;;;34.90;;
47912;SDS011;33676;51.006;17.180;2023-01-23T14:55:46;54.80;;;34.10;;
47912;SDS011;33676;51.006;17.180;2023-01-23T14:58:53;51.80;;;34.60;;
47912;SDS011;33676;51.006;17.180;2023-01-23T15:01:26;59.50;;;37.40;;
47912;SDS011;33676;51.006;17.180;2023-01-23T15:04:01;49.90;;;35.20;;
47912;SDS011;33676;51.006;17.180;2023-01-23T15:09:13;49.30;;;30.10;;
47912;SDS011;33676;51.006;17.180;2023-01-23T15:11:48;62.00;;;36.00;;
47912;SDS011;33676;51.006;17.180;2023-01-23T15:14:37;49.90;;;33.60;;
47912;SDS011;33676;51.006;17.180;2023-01-23T15:17:16;61.90;;;37.50;;
47912;SDS011;33676;51.006;17.180;2023-01-23T15:20:24;58.70;;;37.00;;
47912;SDS011;33676;51.006;17.180;2023-01-23T15:23:28;58.40;;;40.30;;
47912;SDS011;33676;51.006;17.180;2023-01-23T15:26:21;63.80;;;39.30;;
47912;SDS011;33676;51.006;17.180;2023-01-23T15:29:16;60.00;;;37.60;;
47912;SDS011;33676;51.006;17.180;2023-01-23T15:32:19;56.70;;;35.60;;
47912;SDS011;33676;51.006;17.180;2023-01-23T15:35:15;54.70;;;35.70;;
47912;SDS011;33676;51.006;17.180;2023-01-23T15:37:47;54.40;;;36.90;;
47912;SDS011;33676;51.006;17.180;2023-01-23T15:40:30;51.30;;;33.90;;
47912;SDS011;33676;51.006;17.180;2023-01-23T15:43:01;52.30;;;33.50;;
47912;SDS011;33676;51.006;17.180;2023-01-23T15:45:40;55.70;;;35.50;;
47912;SDS011;33676;51.006;17.180;2023-01-23T15:48:37;54.40;;;35.90;;
47912;SDS011;33676;51.006;17.180;2023-01-23T15:51:07;53.40;;;34.40;;
47912;SDS011;33676;51.006;17.180;2023-01-23T15:53:44;63.90;;;39.40;;
47912;SDS011;33676;51.006;17.180;2023-01-23T15:56:23;70.50;;;36.80;;
47912;SDS011;33676;51.006;17.180;2023-01-23T15:58:57;51.00;;;33.30;;
47912;SDS011;33676;51.006;17.180;2023-01-23T16:01:30;54.70;;;34.90;;
47912;SDS011;33676;51.006;17.180;2023-01-23T16:03:59;63.50;;;36.80;;
47912;SDS011;33676;51.006;17.180;2023-01-23T16:06:28;56.80;;;39.20;;
47912;SDS011;33676;51.006;17.180;2023-01-23T16:09:00;59.90;;;37.60;;
47912;SDS011;33676;51.006;17.180;2023-01-23T16:11:37;52.80;;;33.60;;
47912;SDS011;33676;51.006;17.180;2023-01-23T16:14:12;53.60;;;34.60;;
47912;SDS011;33676;51.006;17.180;2023-01-23T16:16:44;55.20;;;34.70;;